createdAt,value
2019-03-12T00:01:38.572Z,4.77
2019-03-12T00:04:11.941Z,5.83
2019-03-12T00:06:51.282Z,6.93
2019-03-12T00:09:25.844Z,7.50
2019-03-12T00:12:05.079Z,7.17
2019-03-12T00:14:39.263Z,8.60
2019-03-12T00:17:17.604Z,5.43
2019-03-12T00:19:51.959Z,5.73
2019-03-12T00:22:26.203Z,6.63
2019-03-12T00:27:57.151Z,7.43
2019-03-12T00:30:34.549Z,7.67
2019-03-12T00:33:06.757Z,6.00
2019-03-12T00:35:45.737Z,7.00
2019-03-12T00:38:18.743Z,9.73
2019-03-12T00:41:00.723Z,10.47
2019-03-12T00:43:35.000Z,6.80
2019-03-12T00:46:10.361Z,9.40
2019-03-12T00:48:42.358Z,9.10
2019-03-12T00:51:15.417Z,5.57
2019-03-12T00:53:50.151Z,10.97
2019-03-12T00:56:23.926Z,10.10
2019-03-12T00:59:11.994Z,13.00
2019-03-12T01:01:50.247Z,9.40
2019-03-12T01:04:23.497Z,7.60
2019-03-12T01:06:57.309Z,8.33
2019-03-12T01:09:29.370Z,14.40
2019-03-12T01:12:04.996Z,7.70
2019-03-12T01:14:37.987Z,9.27
2019-03-12T01:17:13.078Z,6.43
2019-03-12T01:19:52.823Z,8.13
2019-03-12T01:22:32.055Z,6.53
2019-03-12T01:25:07.600Z,6.37
2019-03-12T01:27:46.820Z,5.80
2019-03-12T01:30:18.307Z,4.87
2019-03-12T01:32:49.484Z,5.33
2019-03-12T01:35:19.603Z,7.67
2019-03-12T01:37:54.840Z,4.20
2019-03-12T01:40:32.479Z,5.53
2019-03-12T01:43:06.077Z,6.50
2019-03-12T01:45:38.374Z,5.23
2019-03-12T01:48:11.389Z,5.53
2019-03-12T01:50:51.241Z,7.13
2019-03-12T01:53:23.759Z,7.07
2019-03-12T01:56:04.110Z,5.50
2019-03-12T02:01:58.493Z,5.70
2019-03-12T02:04:31.233Z,8.87
2019-03-12T02:07:05.060Z,3.57
2019-03-12T02:09:37.064Z,4.30
2019-03-12T02:12:10.187Z,4.50
2019-03-12T02:14:40.946Z,7.23
2019-03-12T02:17:12.407Z,5.80
2019-03-12T02:19:47.981Z,4.80
2019-03-12T02:22:22.730Z,5.80
2019-03-12T02:27:56.488Z,4.27
2019-03-12T02:33:31.463Z,2.10
2019-03-12T02:36:18.299Z,2.90
2019-03-12T02:42:02.550Z,3.50
2019-03-12T02:47:31.175Z,1.83
2019-03-12T02:50:06.976Z,1.77
2019-03-12T02:52:37.825Z,1.70
2019-03-12T02:55:13.618Z,1.47
2019-03-12T02:57:48.329Z,1.73
2019-03-12T03:00:23.840Z,3.00
2019-03-12T03:03:02.149Z,2.10
2019-03-12T03:05:37.236Z,2.40
2019-03-12T03:08:16.042Z,1.90
2019-03-12T03:10:55.354Z,1.63
2019-03-12T03:13:27.989Z,1.50
2019-03-12T03:16:00.102Z,1.73
2019-03-12T03:18:31.646Z,2.07
2019-03-12T03:21:03.979Z,1.10
2019-03-12T03:23:39.780Z,1.67
2019-03-12T03:26:12.306Z,1.80
2019-03-12T03:28:50.008Z,1.70
2019-03-12T03:34:28.141Z,2.63
2019-03-12T03:37:00.498Z,1.43
2019-03-12T03:39:33.363Z,0.80
2019-03-12T03:42:03.433Z,1.40
2019-03-12T03:44:33.760Z,2.40
2019-03-12T03:47:05.005Z,1.03
2019-03-12T03:49:42.469Z,1.00
2019-03-12T03:52:12.719Z,0.77
2019-03-12T03:54:43.461Z,1.27
2019-03-12T03:57:36.100Z,1.10
2019-03-12T04:00:24.755Z,0.40
2019-03-12T04:03:00.925Z,0.87
2019-03-12T04:05:34.146Z,1.43
2019-03-12T04:08:04.325Z,2.63
2019-03-12T04:10:38.582Z,1.10
2019-03-12T04:13:08.453Z,1.53
2019-03-12T04:15:39.481Z,1.83
2019-03-12T04:18:11.871Z,1.27
2019-03-12T04:20:44.290Z,1.37
2019-03-12T04:23:16.008Z,0.83
2019-03-12T04:25:48.792Z,1.93
2019-03-12T04:28:21.529Z,0.93
2019-03-12T04:30:53.305Z,1.70
2019-03-12T04:33:59.170Z,0.90
2019-03-12T04:36:30.610Z,0.70
2019-03-12T04:42:09.088Z,1.33
2019-03-12T04:44:32.233Z,4.63
2019-03-12T04:47:05.210Z,7.97
2019-03-12T04:49:35.634Z,8.07
2019-03-12T04:52:08.414Z,6.53
2019-03-12T04:54:43.860Z,5.20
2019-03-12T04:57:16.127Z,4.70
2019-03-12T04:59:51.334Z,4.17
2019-03-12T05:02:25.692Z,3.83
2019-03-12T05:05:02.060Z,3.40
2019-03-12T05:07:33.568Z,2.40
2019-03-12T05:10:11.674Z,2.97
2019-03-12T05:12:43.743Z,2.93
2019-03-12T05:15:16.350Z,2.77
2019-03-12T05:17:49.096Z,1.50
2019-03-12T05:20:21.480Z,2.03
2019-03-12T05:22:52.830Z,2.03
2019-03-12T05:25:22.658Z,1.53
2019-03-12T05:28:02.786Z,2.73
2019-03-12T05:30:36.966Z,2.20
2019-03-12T05:33:08.489Z,3.73
2019-03-12T05:35:40.365Z,5.37
2019-03-12T05:38:15.354Z,8.17
2019-03-12T05:40:46.848Z,8.27
2019-03-12T05:43:29.139Z,5.27
2019-03-12T05:46:07.340Z,7.53
2019-03-12T05:48:44.064Z,6.83
2019-03-12T05:51:19.457Z,5.23
2019-03-12T05:53:56.116Z,10.00
2019-03-12T05:56:45.036Z,5.43
2019-03-12T05:59:23.413Z,4.67
2019-03-12T06:04:46.368Z,2.33
2019-03-12T06:07:17.648Z,3.60
2019-03-12T06:09:56.007Z,3.43
2019-03-12T06:12:29.255Z,3.00
2019-03-12T06:15:04.907Z,3.77
2019-03-12T06:17:43.284Z,3.03
2019-03-12T06:20:18.867Z,4.67
2019-03-12T06:22:52.055Z,4.90
2019-03-12T06:25:27.148Z,3.30
2019-03-12T06:28:03.085Z,3.47
2019-03-12T06:30:36.709Z,3.20
2019-03-12T06:36:37.814Z,3.30
2019-03-12T06:39:14.628Z,3.97
2019-03-12T06:42:08.074Z,5.50
2019-03-12T06:44:48.182Z,4.40
2019-03-12T06:47:34.775Z,6.83
2019-03-12T06:50:11.095Z,7.20
2019-03-12T06:52:54.894Z,11.00
2019-03-12T06:55:41.229Z,9.77
2019-03-12T06:58:33.271Z,8.27
2019-03-12T07:01:13.155Z,9.77
2019-03-12T07:04:04.898Z,6.60
2019-03-12T07:06:44.541Z,10.07
2019-03-12T07:09:19.843Z,8.40
2019-03-12T07:12:00.091Z,5.80
2019-03-12T07:14:34.783Z,5.20
2019-03-12T07:17:54.945Z,5.17
2019-03-12T07:20:14.957Z,8.07
2019-03-12T07:22:55.558Z,5.43
2019-03-12T07:25:36.123Z,6.03
2019-03-12T07:28:24.742Z,4.23
2019-03-12T07:31:04.897Z,3.27
2019-03-12T07:33:36.614Z,4.07
2019-03-12T07:36:09.644Z,3.40
2019-03-12T07:38:41.332Z,5.13
2019-03-12T07:41:25.064Z,5.63
2019-03-12T07:43:52.839Z,3.13
2019-03-12T07:46:26.187Z,3.03
2019-03-12T07:48:57.579Z,3.50
2019-03-12T07:51:47.322Z,4.00
2019-03-12T07:54:41.303Z,6.00
2019-03-12T07:57:30.940Z,4.10
2019-03-12T08:00:04.506Z,3.30
2019-03-12T08:02:52.470Z,3.00
2019-03-12T08:05:23.864Z,4.37
2019-03-12T08:08:10.294Z,3.97
2019-03-12T08:10:47.796Z,4.17
2019-03-12T08:13:35.118Z,3.03
2019-03-12T08:16:08.472Z,4.00
2019-03-12T08:18:39.935Z,3.30
2019-03-12T08:21:21.896Z,2.17
2019-03-12T08:23:44.984Z,3.67
2019-03-12T08:26:27.722Z,2.70
2019-03-12T08:29:08.025Z,3.73
2019-03-12T08:31:54.745Z,2.97
2019-03-12T08:34:35.223Z,2.70
2019-03-12T08:37:16.954Z,4.57
2019-03-12T08:39:53.136Z,4.20
2019-03-12T08:42:53.971Z,2.77
2019-03-12T08:45:19.547Z,1.80
2019-03-12T08:48:03.695Z,2.40
2019-03-12T08:50:36.407Z,1.70
2019-03-12T08:53:13.146Z,3.33
2019-03-12T08:56:03.687Z,1.27
2019-03-12T08:58:44.170Z,2.10
2019-03-12T09:01:21.301Z,1.67
2019-03-12T09:03:56.327Z,1.57
2019-03-12T09:06:34.574Z,2.17
2019-03-12T09:09:14.096Z,2.17
2019-03-12T09:11:59.696Z,2.77
2019-03-12T09:14:39.113Z,1.57
2019-03-12T09:17:25.650Z,2.13
2019-03-12T09:19:58.087Z,2.50
2019-03-12T09:22:38.171Z,2.83
2019-03-12T09:25:29.766Z,3.37
2019-03-12T09:28:19.330Z,2.13
2019-03-12T09:31:02.134Z,1.87
2019-03-12T09:33:38.706Z,1.67
2019-03-12T09:36:10.146Z,3.57
2019-03-12T09:38:53.259Z,1.97
2019-03-12T09:41:34.180Z,2.50
2019-03-12T09:44:17.108Z,1.67
2019-03-12T09:47:06.019Z,1.63
2019-03-12T09:49:39.018Z,1.37
2019-03-12T09:52:23.224Z,1.63
2019-03-12T09:55:11.911Z,1.37
2019-03-12T09:57:52.886Z,3.00
2019-03-12T10:00:33.190Z,2.80
2019-03-12T10:03:21.847Z,2.17
2019-03-12T10:05:57.053Z,2.73
2019-03-12T10:08:32.894Z,2.20
2019-03-12T10:11:08.686Z,3.23
2019-03-12T10:13:56.172Z,2.30
2019-03-12T10:16:33.781Z,3.67
2019-03-12T10:19:05.195Z,1.77
2019-03-12T10:21:40.296Z,2.07
2019-03-12T10:24:17.873Z,4.10
2019-03-12T10:27:00.713Z,2.87
2019-03-12T10:29:32.208Z,1.87
2019-03-12T10:32:28.598Z,3.73
2019-03-12T10:35:02.755Z,3.20
2019-03-12T10:37:38.141Z,2.50
2019-03-12T10:40:16.679Z,3.63
2019-03-12T10:42:51.041Z,1.80
2019-03-12T10:48:40.052Z,2.83
2019-03-12T10:51:12.883Z,5.33
2019-03-12T10:53:44.459Z,4.00
2019-03-12T10:56:14.285Z,4.90
2019-03-12T10:58:45.753Z,3.60
2019-03-12T11:01:17.106Z,2.17
2019-03-12T11:03:50.989Z,1.53
2019-03-12T11:06:45.912Z,6.37
2019-03-12T11:09:18.003Z,1.30
2019-03-12T11:11:53.674Z,2.87
2019-03-12T11:14:26.737Z,1.50
2019-03-12T11:16:59.214Z,1.70
2019-03-12T11:19:29.394Z,3.53
2019-03-12T11:22:00.754Z,3.93
2019-03-12T11:24:32.259Z,3.10
2019-03-12T11:27:03.235Z,3.03
2019-03-12T11:29:33.090Z,2.63
2019-03-12T11:32:03.772Z,3.93
2019-03-12T11:34:38.864Z,3.70
2019-03-12T11:37:09.877Z,1.10
2019-03-12T11:39:40.999Z,2.87
2019-03-12T11:42:19.273Z,4.37
2019-03-12T11:44:53.743Z,4.27
2019-03-12T11:47:26.541Z,2.57
2019-03-12T11:49:57.442Z,2.60
2019-03-12T11:52:30.992Z,2.70
2019-03-12T11:55:03.964Z,1.57
2019-03-12T11:57:35.333Z,1.70
2019-03-12T12:00:11.593Z,2.70
2019-03-12T12:02:42.416Z,1.23
2019-03-12T12:05:23.901Z,2.60
2019-03-12T12:07:56.201Z,2.23
2019-03-12T12:10:28.776Z,2.00
2019-03-12T12:13:02.246Z,2.70
2019-03-12T12:15:38.209Z,3.53
2019-03-12T12:18:13.659Z,2.90
2019-03-12T12:20:44.993Z,3.00
2019-03-12T12:23:18.308Z,4.43
2019-03-12T12:25:48.895Z,3.60
2019-03-12T12:28:25.364Z,2.87
2019-03-12T12:30:54.139Z,2.63
2019-03-12T12:33:24.009Z,2.50
2019-03-12T12:35:58.098Z,4.17
2019-03-12T12:38:29.313Z,6.90
2019-03-12T12:41:03.398Z,5.03
2019-03-12T12:43:37.071Z,5.37
2019-03-12T12:46:08.773Z,5.90
2019-03-12T12:48:41.673Z,5.20
2019-03-12T12:51:14.286Z,3.00
2019-03-12T12:53:45.712Z,3.67
2019-03-12T12:56:24.109Z,3.13
2019-03-12T12:59:13.772Z,3.70
2019-03-12T13:01:34.525Z,3.60
2019-03-12T13:04:04.605Z,2.70
2019-03-12T13:06:37.009Z,4.80
2019-03-12T13:09:08.240Z,2.47
2019-03-12T13:11:40.150Z,3.17
2019-03-12T13:14:11.124Z,6.00
2019-03-12T13:16:47.374Z,3.00
2019-03-12T13:19:19.233Z,2.63
2019-03-12T13:21:49.526Z,4.00
2019-03-12T13:24:20.459Z,3.13
2019-03-12T13:26:53.347Z,3.80
2019-03-12T13:29:27.084Z,3.60
2019-03-12T13:32:12.631Z,3.80
2019-03-12T13:34:34.877Z,3.80
2019-03-12T13:37:06.879Z,4.93
2019-03-12T13:39:38.728Z,6.17
2019-03-12T13:45:18.077Z,6.63
2019-03-12T13:47:52.769Z,3.93
2019-03-12T13:50:24.406Z,6.47
2019-03-12T13:52:55.830Z,4.70
2019-03-12T13:55:33.422Z,6.43
2019-03-12T13:58:07.453Z,8.33
2019-03-12T14:00:41.559Z,8.00
2019-03-12T14:03:13.797Z,5.67
2019-03-12T14:05:45.875Z,8.77
2019-03-12T14:08:15.758Z,6.93
2019-03-12T14:10:47.326Z,7.00
2019-03-12T14:13:17.230Z,14.70
2019-03-12T14:15:48.114Z,10.17
2019-03-12T14:18:23.476Z,4.90
2019-03-12T14:21:15.292Z,4.23
2019-03-12T14:23:57.833Z,7.80
2019-03-12T14:26:29.311Z,6.13
2019-03-12T14:28:59.145Z,7.37
2019-03-12T14:31:33.970Z,6.83
2019-03-12T14:34:09.717Z,8.43
2019-03-12T14:36:41.467Z,11.70
2019-03-12T14:39:14.234Z,8.43
2019-03-12T14:41:46.160Z,6.90
2019-03-12T14:44:21.598Z,6.90
2019-03-12T14:46:57.035Z,8.43
2019-03-12T14:49:28.360Z,5.27
2019-03-12T14:52:04.743Z,9.07
2019-03-12T14:54:44.016Z,7.03
2019-03-12T14:57:15.877Z,6.17
2019-03-12T14:59:45.698Z,5.60
2019-03-12T15:02:17.384Z,7.30
2019-03-12T15:04:49.380Z,7.10
2019-03-12T15:07:24.053Z,6.57
2019-03-12T15:15:44.752Z,7.37
2019-03-12T15:18:14.620Z,6.67
2019-03-12T15:20:52.145Z,8.93
2019-03-12T15:23:27.615Z,6.80
2019-03-12T15:25:58.488Z,10.80
2019-03-12T15:28:30.039Z,10.83
2019-03-12T15:31:04.229Z,14.43
2019-03-12T15:33:34.980Z,11.77
2019-03-12T15:36:09.291Z,7.17
2019-03-12T15:38:39.141Z,6.60
2019-03-12T15:41:10.553Z,10.83
2019-03-12T15:43:44.383Z,8.57
2019-03-12T15:46:22.195Z,10.20
2019-03-12T15:48:59.311Z,7.77
2019-03-12T15:51:37.156Z,9.43
2019-03-12T15:54:14.638Z,7.80
2019-03-12T15:56:56.076Z,6.63
2019-03-12T15:59:29.543Z,9.33
2019-03-12T16:02:03.288Z,9.17
2019-03-12T16:04:36.419Z,9.53
2019-03-12T16:10:28.826Z,9.83
2019-03-12T16:12:58.760Z,11.43
2019-03-12T16:15:37.810Z,12.30
2019-03-12T16:18:14.310Z,12.73
2019-03-12T16:20:44.805Z,15.43
2019-03-12T16:23:24.676Z,15.53
2019-03-12T16:26:06.839Z,20.63
2019-03-12T16:31:56.056Z,15.80
2019-03-12T16:34:42.249Z,12.50
2019-03-12T16:37:35.986Z,12.23
2019-03-12T16:40:17.954Z,12.37
2019-03-12T16:42:49.588Z,11.37
2019-03-12T16:45:25.765Z,11.67
2019-03-12T16:48:02.911Z,10.33
2019-03-12T16:50:46.271Z,9.90
2019-03-12T16:53:21.629Z,10.63
2019-03-12T16:55:59.151Z,8.53
2019-03-12T17:01:43.161Z,12.23
2019-03-12T17:04:25.964Z,8.03
2019-03-12T17:07:08.663Z,8.27
2019-03-12T17:09:44.569Z,9.53
2019-03-12T17:12:17.569Z,11.47
2019-03-12T17:14:50.424Z,9.83
2019-03-12T17:17:21.848Z,9.90
2019-03-12T17:19:52.615Z,7.20
2019-03-12T17:22:26.090Z,8.27
2019-03-12T17:25:03.911Z,7.73
2019-03-12T17:27:36.457Z,8.23
2019-03-12T17:30:27.618Z,8.37
2019-03-12T17:32:58.090Z,10.07
2019-03-12T17:35:35.371Z,11.67
2019-03-12T17:38:12.910Z,18.30
2019-03-12T17:40:45.028Z,18.60
2019-03-12T17:43:21.624Z,14.77
2019-03-12T17:49:07.099Z,16.40
2019-03-12T17:51:52.257Z,18.40
2019-03-12T17:54:31.942Z,24.47
2019-03-12T17:57:15.761Z,17.23
2019-03-12T17:59:47.844Z,17.10
2019-03-12T18:02:20.652Z,22.13
2019-03-12T18:04:53.569Z,21.43
2019-03-12T18:07:23.442Z,15.53
2019-03-12T18:09:55.766Z,18.07
2019-03-12T18:12:26.336Z,16.07
2019-03-12T18:14:56.709Z,10.73
2019-03-12T18:17:27.142Z,17.33
2019-03-12T18:20:00.381Z,13.90
2019-03-12T18:22:33.771Z,11.70
2019-03-12T18:25:05.610Z,10.80
2019-03-12T18:27:46.089Z,18.50
2019-03-12T18:30:17.877Z,12.17
2019-03-12T18:32:50.581Z,17.60
2019-03-12T18:35:26.142Z,14.53
2019-03-12T18:38:03.903Z,22.43
2019-03-12T18:40:32.076Z,21.20
2019-03-12T18:43:03.775Z,23.17
2019-03-12T18:45:37.743Z,30.57
2019-03-12T18:48:09.938Z,25.17
2019-03-12T18:50:50.633Z,29.40
2019-03-12T18:53:36.515Z,24.20
2019-03-12T18:56:13.177Z,17.50
2019-03-12T18:58:43.446Z,15.13
2019-03-12T19:01:13.470Z,13.83
2019-03-12T19:03:47.244Z,18.87
2019-03-12T19:06:22.352Z,18.13
2019-03-12T19:08:54.723Z,13.20
2019-03-12T19:11:27.990Z,14.20
2019-03-12T19:13:59.514Z,18.87
2019-03-12T19:16:30.198Z,20.37
2019-03-12T19:19:05.045Z,15.63
2019-03-12T19:21:47.009Z,13.53
2019-03-12T19:24:19.351Z,14.00
2019-03-12T19:26:52.511Z,17.23
2019-03-12T19:29:24.915Z,17.17
2019-03-12T19:31:59.724Z,22.30
2019-03-12T19:34:33.597Z,28.20
2019-03-12T19:37:07.497Z,28.90
2019-03-12T19:39:45.371Z,28.40
2019-03-12T19:42:15.237Z,25.53
2019-03-12T19:44:46.643Z,26.53
2019-03-12T19:47:17.604Z,22.70
2019-03-12T19:49:47.496Z,20.23
2019-03-12T19:52:21.141Z,23.53
2019-03-12T19:54:51.080Z,22.13
2019-03-12T19:57:23.788Z,25.10
2019-03-12T19:59:56.942Z,28.90
2019-03-12T20:02:29.534Z,29.30
2019-03-12T20:05:09.708Z,28.70
2019-03-12T20:07:45.208Z,29.77
2019-03-12T20:10:40.346Z,30.30
2019-03-12T20:13:41.684Z,33.70
2019-03-12T20:16:36.940Z,32.80
2019-03-12T20:19:21.137Z,28.03
2019-03-12T20:22:28.139Z,31.20
2019-03-12T20:25:35.119Z,29.03
2019-03-12T20:28:38.967Z,28.33
2019-03-12T20:31:40.109Z,29.03
2019-03-12T20:34:42.438Z,25.30
2019-03-12T20:37:49.200Z,29.27
2019-03-12T20:40:50.983Z,27.17
2019-03-12T20:43:53.748Z,25.23
2019-03-12T20:46:48.843Z,25.53
2019-03-12T20:49:42.087Z,28.90
2019-03-12T20:52:35.858Z,28.27
2019-03-12T20:55:36.637Z,28.13
2019-03-12T20:58:25.522Z,28.47
2019-03-12T21:01:11.543Z,29.73
2019-03-12T21:04:25.404Z,35.77
2019-03-12T21:07:08.188Z,33.23
2019-03-12T21:10:41.847Z,30.93
2019-03-12T21:13:35.739Z,35.20
2019-03-12T21:16:18.980Z,29.13
2019-03-12T21:19:08.784Z,27.97
2019-03-12T21:22:14.511Z,39.17
2019-03-12T21:25:00.407Z,35.80
2019-03-12T21:27:36.085Z,33.20
2019-03-12T21:30:04.709Z,30.17
2019-03-12T21:32:36.117Z,33.13
2019-03-12T21:35:06.454Z,26.77
2019-03-12T21:37:38.168Z,29.47
2019-03-12T21:40:14.279Z,34.07
2019-03-12T21:42:44.558Z,30.33
2019-03-12T21:45:26.186Z,31.37
2019-03-12T21:48:03.793Z,31.33
2019-03-12T21:50:40.469Z,26.43
2019-03-12T21:56:18.041Z,28.40
2019-03-12T21:58:58.608Z,30.47
2019-03-12T22:01:31.025Z,29.93
2019-03-12T22:04:11.344Z,25.83
2019-03-12T22:06:53.937Z,26.87
2019-03-12T22:09:29.341Z,29.20
2019-03-12T22:12:03.802Z,29.57
2019-03-12T22:14:41.396Z,29.63
2019-03-12T22:23:29.836Z,30.77
2019-03-12T22:29:08.320Z,29.40
2019-03-12T22:31:52.571Z,34.50
2019-03-12T22:37:41.864Z,32.67
2019-03-12T22:46:05.559Z,32.50
2019-03-12T22:48:36.004Z,35.43
2019-03-12T22:51:14.647Z,34.17
2019-03-12T22:53:50.867Z,29.93
2019-03-12T22:56:25.429Z,34.90
2019-03-12T22:59:00.533Z,34.53
2019-03-12T23:01:49.946Z,34.60
2019-03-12T23:04:42.392Z,33.77
2019-03-12T23:07:31.234Z,41.73
2019-03-12T23:10:16.364Z,36.23
2019-03-12T23:12:53.921Z,32.60
2019-03-12T23:15:32.536Z,39.13
2019-03-12T23:18:16.051Z,42.07
2019-03-12T23:20:48.962Z,34.97
2019-03-12T23:23:22.953Z,33.63
2019-03-12T23:26:03.113Z,38.13
2019-03-12T23:28:37.239Z,35.37
2019-03-12T23:31:08.870Z,39.50
2019-03-12T23:33:41.151Z,34.33
2019-03-12T23:36:14.401Z,37.97
2019-03-12T23:38:47.772Z,37.20
2019-03-12T23:41:19.599Z,36.43
2019-03-12T23:43:49.548Z,35.97
2019-03-12T23:46:27.010Z,31.67
2019-03-12T23:49:01.473Z,35.63
2019-03-12T23:51:35.806Z,42.60
2019-03-12T23:54:16.698Z,43.87
2019-03-12T23:56:47.964Z,34.13
2019-03-12T23:59:20.602Z,44.00
